createdAt,value
2022-11-22T00:01:30.453Z,3.74
2022-11-22T00:16:30.462Z,3.96
2022-11-22T00:31:30.473Z,3.87
2022-11-22T00:46:30.582Z,3.93
2022-11-22T01:01:30.568Z,3.15
2022-11-22T01:16:30.579Z,3.41
2022-11-22T01:31:30.566Z,3.11
2022-11-22T01:46:30.636Z,2.24
2022-11-22T02:01:30.735Z,1.87
2022-11-22T02:16:30.692Z,1.79
2022-11-22T02:31:30.753Z,1.46
2022-11-22T02:46:30.740Z,1.63
2022-11-22T03:01:30.830Z,2.03
2022-11-22T03:16:30.757Z,1.78
2022-11-22T03:31:30.767Z,1.37
2022-11-22T03:46:30.863Z,1.52
2022-11-22T04:01:30.917Z,1.55
2022-11-22T04:16:30.876Z,1.45
2022-11-22T04:31:30.889Z,1.61
2022-11-22T04:46:30.974Z,1.52
2022-11-22T05:01:31.006Z,1.45
2022-11-22T05:16:31.003Z,1.49
2022-11-22T05:31:30.994Z,1.46
2022-11-22T05:46:31.107Z,1.44
2022-11-22T06:01:31.101Z,1.62
2022-11-22T06:16:31.123Z,1.68
2022-11-22T06:31:31.115Z,2.04
2022-11-22T06:46:31.239Z,1.53
2022-11-22T07:01:31.355Z,1.86
2022-11-22T07:16:31.242Z,2.39
2022-11-22T07:31:31.220Z,2.41
2022-11-22T07:46:31.971Z,2.50
2022-11-22T08:01:31.337Z,2.89
2022-11-22T08:16:31.363Z,2.38
2022-11-22T08:31:31.393Z,2.71
2022-11-22T08:46:31.422Z,3.03
2022-11-22T09:01:31.576Z,3.20
2022-11-22T09:16:31.484Z,3.22
2022-11-22T09:31:31.541Z,3.01
2022-11-22T09:46:31.622Z,3.49
2022-11-22T10:01:31.739Z,3.50
2022-11-22T10:16:31.622Z,3.15
2022-11-22T10:31:31.667Z,4.05
2022-11-22T10:46:31.840Z,3.68
2022-11-22T11:01:31.819Z,4.04
2022-11-22T11:16:31.838Z,3.02
2022-11-22T11:31:31.882Z,4.08
2022-11-22T11:46:31.890Z,4.22
2022-11-22T12:01:37.209Z,4.63
2022-11-22T12:16:31.862Z,4.32
2022-11-22T12:31:32.202Z,4.32
2022-11-22T12:46:31.987Z,2.99
2022-11-22T13:01:32.083Z,3.81
2022-11-22T13:16:32.129Z,3.71
2022-11-22T13:31:36.612Z,3.58
2022-11-22T13:46:32.143Z,3.07
2022-11-22T14:01:32.220Z,3.27
2022-11-22T14:16:32.164Z,3.40
2022-11-22T14:31:32.145Z,2.84
2022-11-22T14:46:52.278Z,2.73
2022-11-22T15:01:32.335Z,2.72
2022-11-22T16:01:32.444Z,3.10
2022-11-22T16:16:32.385Z,2.97
2022-11-22T16:31:32.452Z,3.10
2022-11-22T16:46:32.473Z,2.34
2022-11-22T17:01:32.720Z,2.68
2022-11-22T17:16:32.517Z,2.65
2022-11-22T17:31:32.620Z,2.87
2022-11-22T17:46:32.615Z,2.58
2022-11-22T18:01:32.604Z,2.86
2022-11-22T18:16:32.601Z,3.00
2022-11-22T18:31:50.815Z,2.51
2022-11-22T18:46:32.747Z,3.13
2022-11-22T19:01:32.841Z,2.30
2022-11-22T19:16:32.864Z,2.56
2022-11-22T19:31:32.821Z,3.02
2022-11-22T19:46:33.369Z,3.43
2022-11-22T20:01:32.967Z,3.78
2022-11-22T20:16:33.015Z,2.44
2022-11-22T20:31:32.876Z,3.04
2022-11-22T20:46:33.020Z,3.18
2022-11-22T21:01:33.025Z,3.03
2022-11-22T21:16:32.997Z,2.51
2022-11-22T21:31:33.088Z,2.88
2022-11-22T21:46:33.243Z,2.94
2022-11-22T22:01:33.260Z,2.98
2022-11-22T22:16:33.101Z,2.85
2022-11-22T22:31:33.117Z,2.93
2022-11-22T22:46:33.210Z,2.69
2022-11-22T23:01:33.291Z,2.82
2022-11-22T23:16:33.582Z,2.90
2022-11-22T23:31:33.302Z,2.78
2022-11-22T23:46:33.384Z,2.49
